createdAt,value
2022-10-18T00:01:02.100Z,8.73
2022-10-18T00:03:29.703Z,8.90
2022-10-18T00:05:58.517Z,9.50
2022-10-18T00:08:25.952Z,9.55
2022-10-18T00:10:53.754Z,9.40
2022-10-18T00:13:21.769Z,10.70
2022-10-18T00:15:54.590Z,10.35
2022-10-18T00:18:22.469Z,9.68
2022-10-18T00:21:03.671Z,12.20
2022-10-18T00:23:32.324Z,8.70
2022-10-18T00:26:06.200Z,8.95
2022-10-18T00:28:35.251Z,9.05
2022-10-18T00:31:23.967Z,9.00
2022-10-18T00:33:56.729Z,9.52
2022-10-18T00:36:25.036Z,10.17
2022-10-18T00:38:52.953Z,10.35
2022-10-18T00:41:29.770Z,10.77
2022-10-18T00:44:01.797Z,10.20
2022-10-18T00:46:32.234Z,12.95
2022-10-18T00:49:02.964Z,7.87
2022-10-18T00:51:39.921Z,10.32
2022-10-18T00:54:07.307Z,7.18
2022-10-18T00:56:35.271Z,8.57
2022-10-18T00:59:03.420Z,10.82
2022-10-18T01:01:30.867Z,9.43
2022-10-18T01:03:58.875Z,9.38
2022-10-18T01:06:28.685Z,8.82
2022-10-18T01:09:14.212Z,10.40
2022-10-18T01:11:53.607Z,9.30
2022-10-18T01:14:59.136Z,9.33
2022-10-18T01:17:44.559Z,8.43
2022-10-18T01:20:42.392Z,7.78
2022-10-18T01:23:36.617Z,6.53
2022-10-18T01:26:42.381Z,6.75
2022-10-18T01:29:47.111Z,7.43
2022-10-18T01:32:25.750Z,7.05
2022-10-18T01:35:00.095Z,8.07
2022-10-18T01:37:29.538Z,7.68
2022-10-18T01:39:59.723Z,8.38
2022-10-18T01:42:27.657Z,8.70
2022-10-18T01:44:55.641Z,8.48
2022-10-18T01:47:23.990Z,7.43
2022-10-18T01:49:59.220Z,8.90
2022-10-18T01:52:26.618Z,9.73
2022-10-18T01:54:56.534Z,8.27
2022-10-18T01:57:45.754Z,9.98
2022-10-18T02:00:15.401Z,9.48
2022-10-18T02:02:46.670Z,8.13
2022-10-18T02:05:31.500Z,6.45
2022-10-18T02:08:19.207Z,5.50
2022-10-18T02:11:12.785Z,7.35
2022-10-18T02:13:45.354Z,8.07
2022-10-18T02:16:36.549Z,6.82
2022-10-18T02:19:14.188Z,8.15
2022-10-18T02:21:43.705Z,7.77
2022-10-18T02:24:14.548Z,7.20
2022-10-18T02:26:42.758Z,7.95
2022-10-18T02:29:10.705Z,8.70
2022-10-18T02:31:50.510Z,6.65
2022-10-18T02:34:25.114Z,6.50
2022-10-18T02:36:59.731Z,6.47
2022-10-18T02:39:35.169Z,7.53
2022-10-18T02:42:07.239Z,6.55
2022-10-18T02:44:35.453Z,8.57
2022-10-18T02:47:03.341Z,7.93
2022-10-18T02:49:30.705Z,6.35
2022-10-18T02:51:58.064Z,7.85
2022-10-18T02:54:25.468Z,7.13
2022-10-18T02:56:52.966Z,8.98
2022-10-18T02:59:20.364Z,8.53
2022-10-18T03:01:47.826Z,7.45
2022-10-18T03:04:17.083Z,8.25
2022-10-18T03:06:44.520Z,5.70
2022-10-18T03:09:11.815Z,8.75
2022-10-18T03:11:39.244Z,10.17
2022-10-18T03:14:06.578Z,7.05
2022-10-18T03:16:34.638Z,5.93
2022-10-18T03:19:02.067Z,6.85
2022-10-18T03:21:29.437Z,5.85
2022-10-18T03:23:56.938Z,7.10
2022-10-18T03:26:24.227Z,6.57
2022-10-18T03:28:51.780Z,7.15
2022-10-18T03:31:19.600Z,9.43
2022-10-18T03:33:47.289Z,8.18
2022-10-18T03:36:14.947Z,8.00
2022-10-18T03:38:42.599Z,5.88
2022-10-18T03:41:09.921Z,5.72
2022-10-18T03:43:37.274Z,9.88
2022-10-18T03:46:04.883Z,12.60
2022-10-18T03:48:32.509Z,7.07
2022-10-18T03:51:00.082Z,8.65
2022-10-18T03:53:27.601Z,7.85
2022-10-18T03:55:56.041Z,7.70
2022-10-18T03:58:24.382Z,7.13
2022-10-18T04:00:55.710Z,10.27
2022-10-18T04:03:23.884Z,7.60
2022-10-18T04:05:51.604Z,9.50
2022-10-18T04:08:19.849Z,7.78
2022-10-18T04:10:47.692Z,7.28
2022-10-18T04:13:15.282Z,9.50
2022-10-18T04:15:43.770Z,7.03
2022-10-18T04:18:11.084Z,7.88
2022-10-18T04:20:38.741Z,6.30
2022-10-18T04:23:06.140Z,7.13
2022-10-18T04:25:33.987Z,12.70
2022-10-18T04:28:01.578Z,7.38
2022-10-18T04:30:29.475Z,7.07
2022-10-18T04:32:57.034Z,6.80
2022-10-18T04:35:26.243Z,9.23
2022-10-18T04:37:53.768Z,6.90
2022-10-18T04:40:21.762Z,9.00
2022-10-18T04:42:49.381Z,8.35
2022-10-18T04:45:16.806Z,6.85
2022-10-18T04:47:44.197Z,6.53
2022-10-18T04:50:11.660Z,9.23
2022-10-18T04:52:39.458Z,8.02
2022-10-18T04:55:07.659Z,9.65
2022-10-18T04:57:35.161Z,8.32
2022-10-18T05:00:03.189Z,9.38
2022-10-18T05:02:31.297Z,8.43
2022-10-18T05:04:59.298Z,7.88
2022-10-18T05:07:26.958Z,8.35
2022-10-18T05:09:54.468Z,8.80
2022-10-18T05:12:22.626Z,7.88
2022-10-18T05:14:49.986Z,11.43
2022-10-18T05:17:19.462Z,7.72
2022-10-18T05:19:46.887Z,10.80
2022-10-18T05:22:14.197Z,7.85
2022-10-18T05:24:41.583Z,6.90
2022-10-18T05:27:10.548Z,6.20
2022-10-18T05:29:37.958Z,6.88
2022-10-18T05:32:05.534Z,6.75
2022-10-18T05:34:33.446Z,6.93
2022-10-18T05:37:01.787Z,7.80
2022-10-18T05:39:29.317Z,7.00
2022-10-18T05:41:56.823Z,6.90
2022-10-18T05:44:24.576Z,9.05
2022-10-18T05:46:52.152Z,7.00
2022-10-18T05:49:19.768Z,7.13
2022-10-18T05:51:47.151Z,7.50
2022-10-18T05:54:14.932Z,6.05
2022-10-18T05:56:42.558Z,9.55
2022-10-18T05:59:12.964Z,7.53
2022-10-18T06:01:41.996Z,6.47
2022-10-18T06:04:12.892Z,7.00
2022-10-18T06:06:40.450Z,6.40
2022-10-18T06:09:08.986Z,8.88
2022-10-18T06:11:37.335Z,5.70
2022-10-18T06:14:05.466Z,6.50
2022-10-18T06:16:33.149Z,10.60
2022-10-18T06:19:00.596Z,6.43
2022-10-18T06:21:28.338Z,7.68
2022-10-18T06:23:58.992Z,6.65
2022-10-18T06:26:28.193Z,8.45
2022-10-18T06:28:56.101Z,5.73
2022-10-18T06:31:23.833Z,6.43
2022-10-18T06:33:51.289Z,5.68
2022-10-18T06:36:22.387Z,6.63
2022-10-18T06:38:50.660Z,10.40
2022-10-18T06:41:19.596Z,6.07
2022-10-18T06:43:51.143Z,6.95
2022-10-18T06:46:18.556Z,7.63
2022-10-18T06:48:46.162Z,7.38
2022-10-18T06:51:13.897Z,6.88
2022-10-18T06:53:44.358Z,6.40
2022-10-18T06:56:20.736Z,7.13
2022-10-18T06:58:49.258Z,6.78
2022-10-18T07:01:19.133Z,8.32
2022-10-18T07:03:48.154Z,7.70
2022-10-18T07:06:18.756Z,6.80
2022-10-18T07:08:47.415Z,5.30
2022-10-18T07:11:19.311Z,11.07
2022-10-18T07:13:47.698Z,8.43
2022-10-18T07:16:18.864Z,5.97
2022-10-18T07:18:52.333Z,7.80
2022-10-18T07:21:22.586Z,6.93
2022-10-18T07:23:50.744Z,7.32
2022-10-18T07:26:24.412Z,7.88
2022-10-18T07:28:56.372Z,7.07
2022-10-18T07:31:25.204Z,7.30
2022-10-18T07:33:55.659Z,7.45
2022-10-18T07:36:25.869Z,7.88
2022-10-18T07:38:53.340Z,7.43
2022-10-18T07:41:21.949Z,8.75
2022-10-18T07:43:53.654Z,7.33
2022-10-18T07:46:22.603Z,8.55
2022-10-18T07:48:50.961Z,7.93
2022-10-18T07:51:20.217Z,7.32
2022-10-18T07:53:47.741Z,7.88
2022-10-18T07:56:17.488Z,10.87
2022-10-18T07:58:46.595Z,7.53
2022-10-18T08:01:15.128Z,8.70
2022-10-18T08:03:43.433Z,7.88
2022-10-18T08:06:13.326Z,9.18
2022-10-18T08:08:41.733Z,7.63
2022-10-18T08:11:12.530Z,7.90
2022-10-18T08:13:39.942Z,11.25
2022-10-18T08:16:09.867Z,8.80
2022-10-18T08:18:38.396Z,8.68
2022-10-18T08:21:08.444Z,8.40
2022-10-18T08:23:36.590Z,9.18
2022-10-18T08:26:08.317Z,10.27
2022-10-18T08:28:37.261Z,9.43
2022-10-18T08:31:06.304Z,8.27
2022-10-18T08:33:35.094Z,6.97
2022-10-18T08:36:08.221Z,7.50
2022-10-18T08:38:37.518Z,9.07
2022-10-18T08:41:44.029Z,7.57
2022-10-18T08:44:32.365Z,7.68
2022-10-18T08:47:05.188Z,7.13
2022-10-18T08:49:46.570Z,7.78
2022-10-18T08:52:30.367Z,8.68
2022-10-18T08:55:20.443Z,9.27
2022-10-18T08:57:49.608Z,7.82
2022-10-18T09:00:20.123Z,8.77
2022-10-18T09:03:10.658Z,8.73
2022-10-18T09:05:55.063Z,10.23
2022-10-18T09:08:37.219Z,9.77
2022-10-18T09:11:11.423Z,8.77
2022-10-18T09:13:52.493Z,10.37
2022-10-18T09:16:29.774Z,8.65
2022-10-18T09:19:08.575Z,7.85
2022-10-18T09:21:58.660Z,9.15
2022-10-18T09:24:44.998Z,9.05
2022-10-18T09:27:18.054Z,6.67
2022-10-18T09:30:02.878Z,7.20
2022-10-18T09:33:08.484Z,9.00
2022-10-18T09:36:06.396Z,6.40
2022-10-18T09:38:48.682Z,7.00
2022-10-18T09:41:23.176Z,7.77
2022-10-18T09:43:50.566Z,6.85
2022-10-18T09:46:20.646Z,6.63
2022-10-18T09:48:58.213Z,6.18
2022-10-18T09:51:29.143Z,6.38
2022-10-18T09:53:59.408Z,5.87
2022-10-18T09:56:37.941Z,6.47
2022-10-18T09:59:30.371Z,6.80
2022-10-18T10:01:57.932Z,6.07
2022-10-18T10:04:25.420Z,7.38
2022-10-18T10:06:55.246Z,6.10
2022-10-18T10:09:29.776Z,5.15
2022-10-18T10:11:58.098Z,5.50
2022-10-18T10:14:27.921Z,6.88
2022-10-18T10:17:04.992Z,7.30
2022-10-18T10:19:36.236Z,7.80
2022-10-18T10:22:07.826Z,6.97
2022-10-18T10:24:37.713Z,6.40
2022-10-18T10:27:14.147Z,5.70
2022-10-18T10:29:47.324Z,6.20
2022-10-18T10:32:17.859Z,5.93
2022-10-18T10:34:45.830Z,6.35
2022-10-18T10:37:31.191Z,8.55
2022-10-18T10:40:23.063Z,6.35
2022-10-18T10:43:19.589Z,5.78
2022-10-18T10:46:10.711Z,5.67
2022-10-18T10:49:15.450Z,6.63
2022-10-18T10:51:44.249Z,6.13
2022-10-18T10:54:21.030Z,6.28
2022-10-18T10:57:00.955Z,5.68
2022-10-18T10:59:32.683Z,6.93
2022-10-18T11:02:17.992Z,6.05
2022-10-18T11:04:56.957Z,5.95
2022-10-18T11:07:46.900Z,7.63
2022-10-18T11:10:23.340Z,6.47
2022-10-18T11:13:05.085Z,5.53
2022-10-18T11:15:45.490Z,6.28
2022-10-18T11:18:23.236Z,6.80
2022-10-18T11:21:09.108Z,6.07
2022-10-18T11:23:38.798Z,6.95
2022-10-18T11:26:21.881Z,7.57
2022-10-18T11:28:58.534Z,5.97
2022-10-18T11:31:45.487Z,6.18
2022-10-18T11:34:18.627Z,5.30
2022-10-18T11:37:28.585Z,6.53
2022-10-18T11:40:25.806Z,8.00
2022-10-18T11:43:16.794Z,5.80
2022-10-18T11:46:28.162Z,5.90
2022-10-18T11:49:11.122Z,5.43
2022-10-18T11:52:08.481Z,6.43
2022-10-18T11:55:04.325Z,8.27
2022-10-18T11:58:07.050Z,6.20
2022-10-18T12:00:49.405Z,6.55
2022-10-18T12:04:14.492Z,5.88
2022-10-18T12:06:44.940Z,9.40
2022-10-18T12:09:40.288Z,8.00
2022-10-18T12:12:32.234Z,6.18
2022-10-18T12:15:04.111Z,6.25
2022-10-18T12:17:51.054Z,6.00
2022-10-18T12:20:32.462Z,9.80
2022-10-18T12:22:59.963Z,9.57
2022-10-18T12:25:30.536Z,5.60
2022-10-18T12:28:14.494Z,6.55
2022-10-18T12:30:44.769Z,7.22
2022-10-18T12:33:27.628Z,6.35
2022-10-18T12:36:27.371Z,6.03
2022-10-18T12:39:16.380Z,7.70
2022-10-18T12:41:48.872Z,6.55
2022-10-18T12:44:21.068Z,5.93
2022-10-18T12:46:57.795Z,6.07
2022-10-18T12:49:33.445Z,6.37
2022-10-18T12:52:22.240Z,6.13
2022-10-18T12:55:18.580Z,6.22
2022-10-18T12:57:54.842Z,5.30
2022-10-18T13:00:32.144Z,5.82
2022-10-18T13:03:18.229Z,6.60
2022-10-18T13:05:53.483Z,5.38
2022-10-18T13:08:27.812Z,5.82
2022-10-18T13:11:10.141Z,8.07
2022-10-18T13:14:13.349Z,8.23
2022-10-18T13:16:56.907Z,10.63
2022-10-18T13:19:44.903Z,8.75
2022-10-18T13:22:24.769Z,8.43
2022-10-18T13:25:04.489Z,7.90
2022-10-18T13:27:54.437Z,8.20
2022-10-18T13:30:48.365Z,9.03
2022-10-18T13:33:18.334Z,7.50
2022-10-18T13:35:55.733Z,10.20
2022-10-18T13:38:48.832Z,6.78
2022-10-18T13:41:17.997Z,9.95
2022-10-18T13:43:56.983Z,7.83
2022-10-18T13:46:44.353Z,7.93
2022-10-18T13:49:20.438Z,15.15
2022-10-18T13:52:11.439Z,7.63
2022-10-18T13:55:15.312Z,7.80
2022-10-18T13:57:48.453Z,10.20
2022-10-18T14:00:49.504Z,9.75
2022-10-18T14:03:58.564Z,6.63
2022-10-18T14:06:33.949Z,6.40
2022-10-18T14:09:26.454Z,7.45
2022-10-18T14:12:31.670Z,6.93
2022-10-18T14:15:05.126Z,8.13
2022-10-18T14:17:46.685Z,7.22
2022-10-18T14:20:29.297Z,7.38
2022-10-18T14:23:20.816Z,7.70
2022-10-18T14:25:48.755Z,8.37
2022-10-18T14:28:21.635Z,13.00
2022-10-18T14:31:03.433Z,11.38
2022-10-18T14:33:39.698Z,9.55
2022-10-18T14:36:15.374Z,8.63
2022-10-18T14:39:07.310Z,6.70
2022-10-18T14:41:38.701Z,10.35
2022-10-18T14:44:11.945Z,10.18
2022-10-18T14:46:47.846Z,9.13
2022-10-18T14:49:16.736Z,7.53
2022-10-18T14:51:46.098Z,8.97
2022-10-18T14:54:26.090Z,7.70
2022-10-18T14:56:56.911Z,7.22
2022-10-18T14:59:27.904Z,7.50
2022-10-18T15:02:17.936Z,10.07
2022-10-18T15:04:47.210Z,10.27
2022-10-18T15:07:17.790Z,8.13
2022-10-18T15:09:45.923Z,8.32
2022-10-18T15:12:16.107Z,11.73
2022-10-18T15:14:44.987Z,10.85
2022-10-18T15:17:32.855Z,8.13
2022-10-18T15:20:06.349Z,7.95
2022-10-18T15:22:34.534Z,6.63
2022-10-18T15:25:30.845Z,11.07
2022-10-18T15:28:00.105Z,7.60
2022-10-18T15:30:29.818Z,7.93
2022-10-18T15:33:00.028Z,8.32
2022-10-18T15:35:35.527Z,7.65
2022-10-18T15:38:16.343Z,6.63
2022-10-18T15:40:44.596Z,8.65
2022-10-18T15:43:23.998Z,10.67
2022-10-18T15:46:00.136Z,8.50
2022-10-18T15:48:33.396Z,8.52
2022-10-18T15:51:05.085Z,7.60
2022-10-18T15:54:02.143Z,10.55
2022-10-18T15:56:37.291Z,6.70
2022-10-18T15:59:21.536Z,7.47
2022-10-18T16:01:48.971Z,11.13
2022-10-18T16:04:26.844Z,6.53
2022-10-18T16:06:55.955Z,7.95
2022-10-18T16:09:25.253Z,6.60
2022-10-18T16:11:56.728Z,6.32
2022-10-18T16:14:26.405Z,7.30
2022-10-18T16:17:02.529Z,7.60
2022-10-18T16:19:30.197Z,7.57
2022-10-18T16:21:59.282Z,7.40
2022-10-18T16:24:29.962Z,8.70
2022-10-18T16:26:57.503Z,10.05
2022-10-18T16:29:26.484Z,11.15
2022-10-18T16:31:57.360Z,7.93
2022-10-18T16:34:27.234Z,7.10
2022-10-18T16:36:55.651Z,8.07
2022-10-18T16:39:24.071Z,6.43
2022-10-18T16:41:51.962Z,6.70
2022-10-18T16:44:19.742Z,11.65
2022-10-18T16:46:51.056Z,11.13
2022-10-18T16:49:26.678Z,9.20
2022-10-18T16:51:55.079Z,9.23
2022-10-18T16:54:23.770Z,7.85
2022-10-18T16:56:51.487Z,11.63
2022-10-18T16:59:37.444Z,7.53
2022-10-18T17:02:09.218Z,9.93
2022-10-18T17:04:36.727Z,7.50
2022-10-18T17:07:05.253Z,11.88
2022-10-18T17:09:35.111Z,6.72
2022-10-18T17:12:02.427Z,13.63
2022-10-18T17:14:29.764Z,7.85
2022-10-18T17:16:57.553Z,37.47
2022-10-18T17:19:24.975Z,35.80
2022-10-18T17:21:52.524Z,67.38
2022-10-18T17:24:19.963Z,58.83
2022-10-18T17:26:47.326Z,33.65
2022-10-18T17:29:16.295Z,17.75
2022-10-18T17:31:43.702Z,16.48
2022-10-18T17:34:11.159Z,10.88
2022-10-18T17:36:38.484Z,8.47
2022-10-18T17:39:06.251Z,8.23
2022-10-18T17:41:33.667Z,6.93
2022-10-18T17:44:04.094Z,6.35
2022-10-18T17:46:31.721Z,5.78
2022-10-18T17:48:59.100Z,6.93
2022-10-18T17:51:26.527Z,12.00
2022-10-18T17:53:54.538Z,9.98
2022-10-18T17:56:22.016Z,6.88
2022-10-18T17:58:52.596Z,5.28
2022-10-18T18:01:23.291Z,5.70
2022-10-18T18:03:51.145Z,11.38
2022-10-18T18:06:39.571Z,5.25
2022-10-18T18:09:13.713Z,8.25
2022-10-18T18:11:43.869Z,9.38
2022-10-18T18:14:12.225Z,9.50
2022-10-18T18:16:42.284Z,12.65
2022-10-18T18:19:10.648Z,7.75
2022-10-18T18:21:40.681Z,7.43
2022-10-18T18:24:10.386Z,19.80
2022-10-18T18:26:39.298Z,17.57
2022-10-18T18:29:07.242Z,13.52
2022-10-18T18:31:39.964Z,11.98
2022-10-18T18:34:09.844Z,12.45
2022-10-18T18:36:37.174Z,13.15
2022-10-18T18:39:05.989Z,15.33
2022-10-18T18:41:33.787Z,15.00
2022-10-18T18:44:06.038Z,13.63
2022-10-18T18:46:37.543Z,9.00
2022-10-18T18:49:06.515Z,7.38
2022-10-18T18:51:34.343Z,8.73
2022-10-18T18:54:01.741Z,7.70
2022-10-18T18:56:29.728Z,6.82
2022-10-18T18:58:58.954Z,6.40
2022-10-18T19:01:32.586Z,7.63
2022-10-18T19:04:01.065Z,6.30
2022-10-18T19:06:31.258Z,8.00
2022-10-18T19:09:04.872Z,9.35
2022-10-18T19:11:35.492Z,9.50
2022-10-18T19:14:04.221Z,7.28
2022-10-18T19:16:32.726Z,5.27
2022-10-18T19:19:13.322Z,5.38
2022-10-18T19:21:43.744Z,6.30
2022-10-18T19:24:11.585Z,7.60
2022-10-18T19:26:59.828Z,7.57
2022-10-18T19:29:28.326Z,7.50
2022-10-18T19:31:57.702Z,7.80
2022-10-18T19:34:27.420Z,9.30
2022-10-18T19:36:55.216Z,7.80
2022-10-18T19:39:26.729Z,6.07
2022-10-18T19:41:56.169Z,7.53
2022-10-18T19:44:25.975Z,6.03
2022-10-18T19:46:53.821Z,5.95
2022-10-18T19:49:21.373Z,5.47
2022-10-18T19:51:49.026Z,6.65
2022-10-18T19:54:16.958Z,8.03
2022-10-18T19:56:44.830Z,6.68
2022-10-18T19:59:13.506Z,10.63
2022-10-18T20:01:41.249Z,7.82
2022-10-18T20:04:09.677Z,7.45
2022-10-18T20:06:38.788Z,10.90
2022-10-18T20:09:13.468Z,7.80
2022-10-18T20:11:43.575Z,5.45
2022-10-18T20:14:11.226Z,6.65
2022-10-18T20:16:38.717Z,6.75
2022-10-18T20:19:07.773Z,7.17
2022-10-18T20:21:36.275Z,8.52
2022-10-18T20:24:05.205Z,9.48
2022-10-18T20:26:33.054Z,6.10
2022-10-18T20:29:00.545Z,7.82
2022-10-18T20:31:30.603Z,9.03
2022-10-18T20:34:03.368Z,7.20
2022-10-18T20:36:32.722Z,8.32
2022-10-18T20:39:00.893Z,6.20
2022-10-18T20:41:31.144Z,6.63
2022-10-18T20:44:00.841Z,6.97
2022-10-18T20:46:31.258Z,6.63
2022-10-18T20:48:59.100Z,7.55
2022-10-18T20:51:26.641Z,5.47
2022-10-18T20:53:54.664Z,6.03
2022-10-18T20:56:25.530Z,6.37
2022-10-18T20:58:55.247Z,7.75
2022-10-18T21:01:28.447Z,6.30
2022-10-18T21:03:58.054Z,6.43
2022-10-18T21:06:32.055Z,9.50
2022-10-18T21:09:12.041Z,5.90
2022-10-18T21:11:42.054Z,5.65
2022-10-18T21:14:20.409Z,10.30
2022-10-18T21:16:49.272Z,8.60
2022-10-18T21:19:22.347Z,5.82
2022-10-18T21:21:52.095Z,5.63
2022-10-18T21:24:21.204Z,6.80
2022-10-18T21:26:49.217Z,7.07
2022-10-18T21:29:21.882Z,6.07
2022-10-18T21:31:52.666Z,5.75
2022-10-18T21:34:20.097Z,6.20
2022-10-18T21:36:48.686Z,6.70
2022-10-18T21:39:18.945Z,6.85
2022-10-18T21:41:47.353Z,6.03
2022-10-18T21:44:15.483Z,6.00
2022-10-18T21:46:43.607Z,7.83
2022-10-18T21:49:12.015Z,6.07
2022-10-18T21:51:39.831Z,7.45
2022-10-18T21:54:15.423Z,5.95
2022-10-18T21:56:43.103Z,7.72
2022-10-18T21:59:12.741Z,6.53
2022-10-18T22:01:41.364Z,6.03
2022-10-18T22:04:19.636Z,11.75
2022-10-18T22:06:47.155Z,6.32
2022-10-18T22:09:14.868Z,6.80
2022-10-18T22:11:49.081Z,8.70
2022-10-18T22:14:16.754Z,6.97
2022-10-18T22:16:44.169Z,8.75
2022-10-18T22:19:12.300Z,9.55
2022-10-18T22:21:39.697Z,7.40
2022-10-18T22:24:09.295Z,7.17
2022-10-18T22:26:39.096Z,7.03
2022-10-18T22:29:10.496Z,6.38
2022-10-18T22:31:41.672Z,6.90
2022-10-18T22:34:13.755Z,11.20
2022-10-18T22:36:41.500Z,7.10
2022-10-18T22:39:09.656Z,7.47
2022-10-18T22:41:37.950Z,6.95
2022-10-18T22:44:05.525Z,6.25
2022-10-18T22:46:33.394Z,6.88
2022-10-18T22:49:01.351Z,6.73
2022-10-18T22:51:28.887Z,6.85
2022-10-18T22:53:56.512Z,6.60
2022-10-18T22:56:24.173Z,8.10
2022-10-18T22:58:52.701Z,5.30
2022-10-18T23:01:22.690Z,6.70
2022-10-18T23:03:58.010Z,9.93
2022-10-18T23:06:28.362Z,6.75
2022-10-18T23:08:57.451Z,7.13
2022-10-18T23:11:26.288Z,6.82
2022-10-18T23:13:54.679Z,9.93
2022-10-18T23:16:22.490Z,9.40
2022-10-18T23:18:55.160Z,7.45
2022-10-18T23:21:24.570Z,6.40
2022-10-18T23:23:53.466Z,10.18
2022-10-18T23:26:26.098Z,8.00
2022-10-18T23:28:54.445Z,7.30
2022-10-18T23:31:25.045Z,12.77
2022-10-18T23:33:54.280Z,8.35
2022-10-18T23:36:23.125Z,7.20
2022-10-18T23:38:50.608Z,7.37
2022-10-18T23:41:19.204Z,7.95
2022-10-18T23:43:47.421Z,8.05
2022-10-18T23:46:16.853Z,7.05
2022-10-18T23:48:44.738Z,8.80
2022-10-18T23:51:12.887Z,9.93
2022-10-18T23:53:40.400Z,9.02
2022-10-18T23:56:13.500Z,8.13
2022-10-18T23:58:41.714Z,7.00
